createdAt,value
2018-09-05T00:00:46.255Z,99.90
2018-09-05T00:02:51.470Z,99.90
2018-09-05T00:04:57.414Z,99.90
2018-09-05T00:07:02.437Z,99.90
2018-09-05T00:09:08.935Z,99.90
2018-09-05T00:11:13.952Z,99.90
2018-09-05T00:13:19.031Z,99.90
2018-09-05T00:15:24.080Z,99.90
2018-09-05T00:17:29.114Z,99.90
2018-09-05T00:19:34.093Z,99.90
2018-09-05T00:21:39.168Z,99.90
2018-09-05T00:23:44.079Z,99.90
2018-09-05T00:25:48.953Z,99.90
2018-09-05T00:27:54.070Z,99.90
2018-09-05T00:29:59.196Z,99.90
2018-09-05T00:32:04.205Z,99.90
2018-09-05T00:34:09.152Z,99.90
2018-09-05T00:36:14.081Z,99.90
2018-09-05T00:38:19.116Z,99.90
2018-09-05T00:40:24.199Z,99.90
2018-09-05T00:42:29.295Z,99.90
2018-09-05T00:44:34.284Z,99.90
2018-09-05T00:46:39.290Z,99.90
2018-09-05T00:48:44.177Z,99.90
2018-09-05T00:50:49.234Z,99.90
2018-09-05T00:52:54.251Z,99.90
2018-09-05T00:54:59.172Z,99.90
2018-09-05T00:57:04.122Z,99.90
2018-09-05T00:59:09.049Z,99.90
2018-09-05T01:01:13.959Z,99.90
2018-09-05T01:03:19.293Z,99.90
2018-09-05T01:05:24.410Z,99.90
2018-09-05T01:07:29.986Z,99.90
2018-09-05T01:09:35.011Z,99.90
2018-09-05T01:11:40.059Z,99.90
2018-09-05T01:13:44.934Z,99.90
2018-09-05T01:15:50.061Z,99.90
2018-09-05T01:17:54.967Z,99.90
2018-09-05T01:19:59.975Z,99.90
2018-09-05T01:22:05.030Z,99.90
2018-09-05T01:24:10.157Z,99.90
2018-09-05T01:26:15.090Z,99.90
2018-09-05T01:28:20.005Z,99.90
2018-09-05T01:30:27.970Z,99.90
2018-09-05T01:32:33.860Z,99.90
2018-09-05T01:34:40.083Z,99.90
2018-09-05T01:36:45.045Z,99.90
2018-09-05T01:38:49.897Z,99.90
2018-09-05T01:40:54.807Z,99.90
2018-09-05T01:43:00.078Z,99.90
2018-09-05T01:45:11.700Z,99.90
2018-09-05T01:47:16.582Z,99.90
2018-09-05T01:49:21.866Z,99.90
2018-09-05T01:51:27.073Z,99.90
2018-09-05T01:53:32.098Z,99.90
2018-09-05T01:55:37.011Z,99.90
2018-09-05T01:57:41.879Z,99.90
2018-09-05T01:59:46.988Z,99.90
2018-09-05T02:01:52.206Z,99.90
2018-09-05T02:03:57.235Z,99.90
2018-09-05T02:06:02.179Z,99.90
2018-09-05T02:08:07.141Z,99.90
2018-09-05T02:10:12.193Z,99.90
2018-09-05T02:12:17.107Z,99.90
2018-09-05T02:14:22.232Z,99.90
2018-09-05T02:16:27.260Z,99.90
2018-09-05T02:18:32.171Z,99.90
2018-09-05T02:20:37.055Z,99.90
2018-09-05T02:22:42.466Z,99.90
2018-09-05T02:24:47.478Z,99.90
2018-09-05T02:26:52.431Z,99.90
2018-09-05T02:28:57.381Z,99.90
2018-09-05T02:31:02.477Z,99.90
2018-09-05T02:33:07.636Z,99.90
2018-09-05T02:35:12.601Z,99.90
2018-09-05T02:37:17.695Z,99.90
2018-09-05T02:39:23.462Z,99.90
2018-09-05T02:41:29.224Z,99.90
2018-09-05T02:43:39.090Z,99.90
2018-09-05T02:45:44.012Z,99.90
2018-09-05T02:47:48.996Z,99.90
2018-09-05T02:49:53.987Z,99.90
2018-09-05T02:51:58.924Z,99.90
2018-09-05T02:54:03.951Z,99.90
2018-09-05T02:56:08.935Z,99.90
2018-09-05T02:58:13.949Z,99.90
2018-09-05T03:00:19.024Z,99.90
2018-09-05T03:02:24.046Z,99.90
2018-09-05T03:04:28.961Z,99.90
2018-09-05T03:06:34.053Z,99.90
2018-09-05T03:08:39.173Z,99.90
2018-09-05T03:10:44.150Z,99.90
2018-09-05T03:12:49.084Z,99.90
2018-09-05T03:14:54.044Z,99.90
2018-09-05T03:16:59.036Z,99.90
2018-09-05T03:19:04.337Z,99.90
2018-09-05T03:21:09.110Z,99.90
2018-09-05T03:23:14.245Z,99.90
2018-09-05T03:25:19.379Z,99.90
2018-09-05T03:27:24.475Z,99.90
2018-09-05T03:29:29.605Z,99.90
2018-09-05T03:31:34.644Z,99.90
2018-09-05T03:33:39.888Z,99.90
2018-09-05T03:35:46.715Z,99.90
2018-09-05T03:37:51.780Z,99.90
2018-09-05T03:39:56.837Z,99.90
2018-09-05T03:42:01.857Z,99.90
2018-09-05T03:44:07.215Z,99.90
2018-09-05T03:46:13.111Z,99.90
2018-09-05T03:48:18.095Z,99.90
2018-09-05T03:50:23.467Z,99.90
2018-09-05T03:52:28.574Z,99.90
2018-09-05T03:54:33.525Z,99.90
2018-09-05T03:56:38.823Z,99.90
2018-09-05T03:58:45.087Z,99.90
2018-09-05T04:00:50.049Z,99.90
2018-09-05T04:02:55.117Z,99.90
2018-09-05T04:05:01.221Z,99.90
2018-09-05T04:07:06.329Z,99.90
2018-09-05T04:09:11.612Z,99.90
2018-09-05T04:11:16.747Z,99.90
2018-09-05T04:13:21.905Z,99.90
2018-09-05T04:15:27.140Z,99.90
2018-09-05T04:17:32.268Z,99.90
2018-09-05T04:19:37.426Z,99.90
2018-09-05T04:21:42.455Z,99.90
2018-09-05T04:23:49.515Z,99.90
2018-09-05T04:25:54.564Z,99.90
2018-09-05T04:27:59.625Z,99.90
2018-09-05T04:30:04.684Z,99.90
2018-09-05T04:32:09.774Z,99.90
2018-09-05T04:34:14.899Z,99.90
2018-09-05T04:36:19.895Z,99.90
2018-09-05T04:38:24.933Z,99.90
2018-09-05T04:40:30.264Z,99.90
2018-09-05T04:42:35.635Z,99.90
2018-09-05T04:44:40.945Z,99.90
2018-09-05T04:46:46.067Z,99.90
2018-09-05T04:48:52.282Z,99.90
2018-09-05T04:50:57.235Z,99.90
2018-09-05T04:53:02.333Z,99.90
2018-09-05T04:55:07.828Z,99.90
2018-09-05T04:57:12.812Z,99.90
2018-09-05T04:59:17.878Z,99.90
2018-09-05T05:01:22.815Z,99.90
2018-09-05T05:03:27.858Z,99.90
2018-09-05T05:05:32.965Z,99.90
2018-09-05T05:07:37.902Z,99.90
2018-09-05T05:09:42.886Z,99.90
2018-09-05T05:11:47.888Z,99.90
2018-09-05T05:13:52.912Z,99.90
2018-09-05T05:15:57.916Z,99.90
2018-09-05T05:18:03.000Z,99.90
2018-09-05T05:20:09.137Z,99.90
2018-09-05T05:22:14.093Z,99.90
2018-09-05T05:24:19.107Z,99.90
2018-09-05T05:26:24.182Z,99.90
2018-09-05T05:28:29.215Z,99.90
2018-09-05T05:30:34.205Z,99.90
2018-09-05T05:32:39.287Z,99.90
2018-09-05T05:34:44.496Z,99.90
2018-09-05T05:36:49.726Z,99.90
2018-09-05T05:38:54.973Z,99.90
2018-09-05T05:40:59.921Z,99.90
2018-09-05T05:43:04.925Z,99.90
2018-09-05T05:45:10.097Z,99.90
2018-09-05T05:47:15.814Z,99.90
2018-09-05T05:49:20.818Z,99.90
2018-09-05T05:51:27.224Z,99.90
2018-09-05T05:53:37.380Z,99.90
2018-09-05T05:55:42.385Z,99.90
2018-09-05T05:57:47.666Z,99.90
2018-09-05T06:00:07.444Z,99.90
2018-09-05T06:02:12.389Z,99.90
2018-09-05T06:04:17.448Z,99.90
2018-09-05T06:06:22.615Z,99.90
2018-09-05T06:08:27.779Z,99.90
2018-09-05T06:10:32.850Z,99.90
2018-09-05T06:12:37.954Z,99.90
2018-09-05T06:14:43.456Z,99.90
2018-09-05T06:16:48.709Z,99.90
2018-09-05T06:18:54.879Z,99.90
2018-09-05T06:20:59.914Z,99.90
2018-09-05T06:23:05.171Z,99.90
2018-09-05T06:25:11.457Z,99.90
2018-09-05T06:27:16.643Z,99.90
2018-09-05T06:29:21.861Z,99.90
2018-09-05T06:31:26.860Z,99.90
2018-09-05T06:33:31.971Z,99.90
2018-09-05T06:35:37.328Z,99.90
2018-09-05T06:37:42.635Z,99.90
2018-09-05T06:39:48.042Z,99.90
2018-09-05T06:41:53.124Z,99.90
2018-09-05T06:43:58.413Z,99.90
2018-09-05T06:46:04.069Z,99.90
2018-09-05T06:48:09.275Z,99.90
2018-09-05T06:50:14.921Z,99.90
2018-09-05T06:52:20.305Z,99.90
2018-09-05T06:54:25.326Z,99.90
2018-09-05T06:56:30.840Z,99.90
2018-09-05T06:58:37.969Z,99.90
2018-09-05T07:00:43.051Z,99.90
2018-09-05T07:02:48.435Z,99.90
2018-09-05T07:04:53.709Z,99.90
2018-09-05T07:06:58.903Z,99.90
2018-09-05T07:09:03.946Z,99.90
2018-09-05T07:11:09.091Z,99.90
2018-09-05T07:13:14.075Z,99.90
2018-09-05T07:15:19.174Z,99.90
2018-09-05T07:17:24.271Z,99.90
2018-09-05T07:19:29.320Z,99.90
2018-09-05T07:21:35.126Z,99.90
2018-09-05T07:23:40.028Z,99.90
2018-09-05T07:25:44.975Z,99.90
2018-09-05T07:27:50.788Z,99.90
2018-09-05T07:29:56.866Z,99.90
2018-09-05T07:32:02.212Z,99.90
2018-09-05T07:34:07.285Z,99.90
2018-09-05T07:36:13.142Z,99.90
2018-09-05T07:38:18.202Z,99.90
2018-09-05T07:40:23.366Z,99.90
2018-09-05T07:42:28.319Z,99.90
2018-09-05T07:44:34.087Z,99.90
2018-09-05T07:46:39.299Z,99.90
2018-09-05T07:48:44.294Z,99.90
2018-09-05T07:50:49.365Z,99.90
2018-09-05T07:52:54.321Z,99.90
2018-09-05T07:54:59.200Z,99.90
2018-09-05T07:57:04.406Z,99.90
2018-09-05T07:59:09.656Z,99.90
2018-09-05T08:01:14.607Z,99.90
2018-09-05T08:03:19.780Z,99.90
2018-09-05T08:05:24.703Z,99.90
2018-09-05T08:07:29.659Z,99.90
2018-09-05T08:09:34.800Z,99.90
2018-09-05T08:11:39.951Z,99.90
2018-09-05T08:13:44.759Z,99.90
2018-09-05T08:15:49.760Z,99.90
2018-09-05T08:17:55.015Z,99.90
2018-09-05T08:20:00.296Z,99.90
2018-09-05T08:22:05.203Z,99.90
2018-09-05T08:24:10.160Z,99.90
2018-09-05T08:26:15.067Z,99.90
2018-09-05T08:28:19.957Z,99.90
2018-09-05T08:30:24.990Z,99.90
2018-09-05T08:32:30.035Z,99.90
2018-09-05T08:34:34.975Z,99.90
2018-09-05T08:36:40.259Z,99.90
2018-09-05T08:38:45.141Z,99.90
2018-09-05T08:40:50.802Z,99.90
2018-09-05T08:42:55.716Z,99.90
2018-09-05T08:45:01.439Z,99.90
2018-09-05T08:47:06.374Z,99.90
2018-09-05T08:49:11.417Z,99.90
2018-09-05T08:51:16.791Z,99.90
2018-09-05T08:53:22.395Z,99.90
2018-09-05T08:55:27.453Z,99.90
2018-09-05T08:57:33.333Z,99.90
2018-09-05T08:59:38.628Z,99.90
2018-09-05T09:01:43.664Z,99.90
2018-09-05T09:03:48.679Z,99.90
2018-09-05T09:05:53.613Z,99.90
2018-09-05T09:07:59.985Z,99.90
2018-09-05T09:10:05.030Z,99.90
2018-09-05T09:12:10.305Z,99.90
2018-09-05T09:14:15.597Z,99.90
2018-09-05T09:16:20.537Z,99.90
2018-09-05T09:18:25.686Z,99.90
2018-09-05T09:20:31.424Z,99.90
2018-09-05T09:22:36.420Z,99.90
2018-09-05T09:24:43.080Z,99.90
2018-09-05T09:26:48.275Z,99.90
2018-09-05T09:28:53.491Z,99.90
2018-09-05T09:30:58.307Z,99.90
2018-09-05T09:33:03.353Z,99.90
2018-09-05T09:35:08.737Z,99.90
2018-09-05T09:37:13.653Z,99.90
2018-09-05T09:39:18.914Z,99.90
2018-09-05T09:41:23.942Z,99.90
2018-09-05T09:43:28.941Z,99.90
2018-09-05T09:45:34.015Z,99.90
2018-09-05T09:47:39.096Z,99.90
2018-09-05T09:49:44.328Z,99.90
2018-09-05T09:51:49.663Z,99.90
2018-09-05T09:53:54.883Z,99.90
2018-09-05T09:55:59.988Z,99.90
2018-09-05T09:58:04.918Z,99.90
2018-09-05T10:00:10.209Z,99.90
2018-09-05T10:02:20.427Z,99.60
2018-09-05T10:04:31.463Z,99.90
2018-09-05T10:06:41.321Z,99.60
2018-09-05T10:08:51.457Z,99.80
2018-09-05T10:11:01.588Z,99.10
2018-09-05T10:13:12.125Z,99.30
2018-09-05T10:15:22.117Z,99.30
2018-09-05T10:17:34.565Z,99.00
2018-09-05T10:19:50.813Z,98.70
2018-09-05T10:21:56.549Z,99.20
2018-09-05T10:24:01.819Z,98.70
2018-09-05T10:26:07.135Z,98.60
2018-09-05T10:28:12.628Z,98.70
2018-09-05T10:30:17.407Z,99.00
2018-09-05T10:32:22.539Z,98.60
2018-09-05T10:34:28.137Z,98.60
2018-09-05T10:36:33.045Z,98.70
2018-09-05T10:38:38.330Z,97.80
2018-09-05T10:40:43.216Z,97.40
2018-09-05T10:42:48.161Z,97.00
2018-09-05T10:44:53.999Z,96.70
2018-09-05T10:46:59.047Z,96.40
2018-09-05T10:49:03.820Z,96.40
2018-09-05T10:51:08.814Z,96.40
2018-09-05T10:53:14.281Z,95.70
2018-09-05T10:55:18.998Z,95.70
2018-09-05T10:57:24.827Z,95.70
2018-09-05T10:59:29.634Z,95.70
2018-09-05T11:01:34.616Z,94.10
2018-09-05T11:03:39.439Z,93.50
2018-09-05T11:05:44.271Z,92.70
2018-09-05T11:07:49.079Z,92.40
2018-09-05T11:09:54.033Z,92.90
2018-09-05T11:11:58.985Z,92.70
2018-09-05T11:14:04.369Z,92.80
2018-09-05T11:16:19.328Z,92.70
2018-09-05T11:18:24.256Z,94.10
2018-09-05T11:20:29.191Z,93.80
2018-09-05T11:22:33.985Z,93.70
2018-09-05T11:24:38.884Z,94.10
2018-09-05T11:26:44.094Z,94.20
2018-09-05T11:28:49.270Z,94.90
2018-09-05T11:30:54.275Z,96.00
2018-09-05T11:32:59.101Z,96.20
2018-09-05T11:35:03.981Z,96.20
2018-09-05T11:37:08.813Z,95.80
2018-09-05T11:39:14.684Z,95.80
2018-09-05T11:41:20.103Z,96.00
2018-09-05T11:43:25.431Z,96.20
2018-09-05T11:45:30.584Z,96.10
2018-09-05T11:47:35.516Z,96.10
2018-09-05T11:49:40.946Z,96.80
2018-09-05T11:51:46.731Z,96.60
2018-09-05T11:53:51.775Z,96.30
2018-09-05T11:55:56.745Z,95.90
2018-09-05T11:58:02.711Z,96.40
2018-09-05T12:00:07.867Z,96.40
2018-09-05T12:02:14.338Z,96.00
2018-09-05T12:04:19.163Z,96.30
2018-09-05T12:06:24.620Z,96.00
2018-09-05T12:08:29.710Z,96.50
2018-09-05T12:10:34.592Z,96.30
2018-09-05T12:12:39.790Z,96.30
2018-09-05T12:14:45.588Z,96.30
2018-09-05T12:16:50.707Z,95.70
2018-09-05T12:18:55.993Z,96.00
2018-09-05T12:21:01.816Z,95.70
2018-09-05T12:23:07.440Z,95.40
2018-09-05T12:25:12.503Z,95.60
2018-09-05T12:27:17.330Z,95.90
2018-09-05T12:29:22.246Z,95.80
2018-09-05T12:31:27.190Z,95.10
2018-09-05T12:33:32.094Z,95.00
2018-09-05T12:35:37.940Z,95.60
2018-09-05T12:37:42.942Z,94.50
2018-09-05T12:39:48.314Z,93.80
2018-09-05T12:41:53.298Z,93.50
2018-09-05T12:43:58.812Z,93.50
2018-09-05T12:46:03.809Z,92.30
2018-09-05T12:48:09.243Z,93.00
2018-09-05T12:50:15.371Z,93.10
2018-09-05T12:52:20.341Z,93.10
2018-09-05T12:54:25.340Z,92.80
2018-09-05T12:56:30.364Z,93.00
2018-09-05T12:58:35.320Z,92.90
2018-09-05T13:00:40.254Z,91.70
2018-09-05T13:02:45.308Z,91.50
2018-09-05T13:04:50.986Z,91.20
2018-09-05T13:06:57.501Z,91.30
2018-09-05T13:09:02.483Z,91.40
2018-09-05T13:11:07.399Z,91.80
2018-09-05T13:13:12.329Z,91.70
2018-09-05T13:15:17.314Z,91.60
2018-09-05T13:17:23.487Z,91.30
2018-09-05T13:19:28.564Z,92.10
2018-09-05T13:21:33.725Z,92.40
2018-09-05T13:23:38.984Z,92.50
2018-09-05T13:25:44.215Z,91.80
2018-09-05T13:27:49.867Z,91.60
2018-09-05T13:29:54.697Z,90.30
2018-09-05T13:32:00.773Z,89.60
2018-09-05T13:34:05.665Z,89.50
2018-09-05T13:36:12.533Z,87.80
2018-09-05T13:38:17.391Z,88.70
2018-09-05T13:40:22.344Z,87.00
2018-09-05T13:42:27.166Z,87.00
2018-09-05T13:44:32.030Z,87.30
2018-09-05T13:46:37.333Z,87.50
2018-09-05T13:48:42.243Z,87.00
2018-09-05T13:50:47.237Z,87.50
2018-09-05T13:52:52.052Z,88.50
2018-09-05T13:54:56.878Z,87.60
2018-09-05T13:57:01.792Z,87.10
2018-09-05T13:59:06.752Z,86.20
2018-09-05T14:01:11.930Z,85.00
2018-09-05T14:03:16.784Z,85.50
2018-09-05T14:05:21.594Z,85.10
2018-09-05T14:07:26.886Z,84.20
2018-09-05T14:09:32.726Z,82.50
2018-09-05T14:11:37.595Z,82.10
2018-09-05T14:13:42.697Z,82.50
2018-09-05T14:15:47.571Z,83.20
2018-09-05T14:17:52.643Z,83.70
2018-09-05T14:19:57.918Z,82.20
2018-09-05T14:22:02.778Z,80.10
2018-09-05T14:24:08.117Z,81.90
2018-09-05T14:26:14.503Z,81.60
2018-09-05T14:28:19.927Z,81.90
2018-09-05T14:30:25.001Z,80.90
2018-09-05T14:32:30.156Z,81.10
2018-09-05T14:34:35.263Z,78.60
2018-09-05T14:36:40.299Z,78.00
2018-09-05T14:38:45.106Z,76.60
2018-09-05T14:40:50.333Z,75.30
2018-09-05T14:42:55.885Z,76.00
2018-09-05T14:45:01.045Z,75.10
2018-09-05T14:47:05.909Z,74.20
2018-09-05T14:49:11.322Z,75.70
2018-09-05T14:51:16.184Z,75.10
2018-09-05T14:53:21.524Z,74.90
2018-09-05T14:55:26.386Z,73.70
2018-09-05T14:57:31.837Z,75.30
2018-09-05T14:59:40.326Z,75.90
2018-09-05T15:01:45.246Z,72.90
2018-09-05T15:03:50.398Z,75.10
2018-09-05T15:05:55.574Z,75.80
2018-09-05T15:08:00.853Z,74.90
2018-09-05T15:10:06.185Z,74.00
2018-09-05T15:12:11.184Z,72.10
2018-09-05T15:14:16.391Z,72.30
2018-09-05T15:16:22.469Z,73.10
2018-09-05T15:18:28.081Z,73.60
2018-09-05T15:20:34.014Z,71.80
2018-09-05T15:22:39.339Z,72.30
2018-09-05T15:24:44.578Z,71.10
2018-09-05T15:26:49.814Z,71.70
2018-09-05T15:28:55.133Z,71.70
2018-09-05T15:31:00.911Z,71.40
2018-09-05T15:33:06.044Z,72.30
2018-09-05T15:35:11.385Z,72.50
2018-09-05T15:37:17.011Z,72.40
2018-09-05T15:39:24.253Z,73.70
2018-09-05T15:41:30.370Z,74.50
2018-09-05T15:43:35.586Z,75.20
2018-09-05T15:45:40.991Z,76.10
2018-09-05T15:47:46.729Z,76.70
2018-09-05T15:49:51.719Z,76.80
2018-09-05T15:54:41.369Z,76.00
2018-09-05T15:56:46.066Z,76.70
2018-09-05T15:58:50.731Z,75.60
2018-09-05T16:00:55.639Z,75.00
2018-09-05T16:03:00.397Z,75.40
2018-09-05T16:05:07.521Z,75.60
2018-09-05T16:07:12.266Z,75.80
2018-09-05T16:09:17.233Z,76.80
2018-09-05T16:11:22.065Z,76.80
2018-09-05T16:13:27.099Z,76.80
2018-09-05T16:15:31.951Z,76.60
2018-09-05T16:17:36.906Z,77.80
2018-09-05T16:19:42.042Z,76.80
2018-09-05T16:21:46.961Z,76.90
2018-09-05T16:23:51.844Z,77.50
2018-09-05T16:25:56.988Z,77.50
2018-09-05T16:28:01.773Z,78.30
2018-09-05T16:30:06.659Z,78.50
2018-09-05T16:32:12.370Z,77.60
2018-09-05T16:34:17.320Z,76.50
2018-09-05T16:36:22.299Z,76.20
2018-09-05T16:38:27.313Z,76.50
2018-09-05T16:40:32.209Z,77.10
2018-09-05T16:42:37.154Z,76.80
2018-09-05T16:44:42.215Z,77.40
2018-09-05T16:46:47.509Z,76.90
2018-09-05T16:48:52.674Z,77.40
2018-09-05T16:50:57.612Z,77.10
2018-09-05T16:53:02.747Z,77.60
2018-09-05T16:55:07.821Z,77.70
2018-09-05T16:57:12.633Z,76.90
2018-09-05T16:59:17.947Z,77.30
2018-09-05T17:01:22.990Z,77.80
2018-09-05T17:03:28.459Z,78.10
2018-09-05T17:07:47.411Z,78.10
2018-09-05T17:09:54.787Z,78.10
2018-09-05T17:11:59.947Z,78.00
2018-09-05T17:14:04.829Z,78.50
2018-09-05T17:16:09.995Z,79.70
2018-09-05T17:18:15.411Z,79.60
2018-09-05T17:20:22.246Z,79.20
2018-09-05T17:22:27.389Z,79.10
2018-09-05T17:24:32.364Z,79.10
2018-09-05T17:26:38.128Z,79.30
2018-09-05T17:28:45.513Z,79.70
2018-09-05T17:30:51.111Z,79.70
2018-09-05T17:32:56.047Z,79.70
2018-09-05T17:35:01.294Z,80.00
2018-09-05T17:37:06.495Z,80.30
2018-09-05T17:39:12.486Z,80.50
2018-09-05T17:41:18.437Z,80.80
2018-09-05T17:43:24.831Z,81.20
2018-09-05T17:45:29.953Z,81.80
2018-09-05T17:47:35.198Z,81.30
2018-09-05T17:49:40.340Z,81.40
2018-09-05T17:51:45.798Z,81.80
2018-09-05T17:53:51.878Z,81.70
2018-09-05T17:55:56.774Z,82.00
2018-09-05T17:58:01.632Z,82.30
2018-09-05T18:00:07.171Z,82.80
2018-09-05T18:02:13.027Z,82.70
2018-09-05T18:04:17.840Z,83.00
2018-09-05T18:06:23.280Z,83.70
2018-09-05T18:08:28.116Z,83.90
2018-09-05T18:10:33.063Z,83.80
2018-09-05T18:12:38.251Z,83.00
2018-09-05T18:14:44.207Z,82.70
2018-09-05T18:16:49.096Z,82.30
2018-09-05T18:18:54.184Z,82.20
2018-09-05T18:20:59.034Z,82.10
2018-09-05T18:23:03.897Z,82.30
2018-09-05T18:25:09.020Z,82.60
2018-09-05T18:27:13.939Z,82.40
2018-09-05T18:29:18.948Z,82.70
2018-09-05T18:31:24.005Z,83.30
2018-09-05T18:33:28.828Z,83.30
2018-09-05T18:35:33.734Z,84.00
2018-09-05T18:37:38.733Z,84.40
2018-09-05T18:39:44.695Z,84.70
2018-09-05T18:41:49.571Z,85.60
2018-09-05T18:43:54.578Z,86.50
2018-09-05T18:45:59.475Z,86.50
2018-09-05T18:48:04.347Z,86.80
2018-09-05T18:50:09.597Z,87.30
2018-09-05T18:52:15.616Z,88.20
2018-09-05T18:54:20.741Z,88.70
2018-09-05T18:56:26.071Z,89.20
2018-09-05T18:58:31.148Z,90.10
2018-09-05T19:00:36.486Z,90.30
2018-09-05T19:02:41.409Z,90.40
2018-09-05T19:04:46.613Z,90.80
2018-09-05T19:06:51.834Z,91.50
2018-09-05T19:08:56.880Z,91.50
2018-09-05T19:11:06.569Z,91.90
2018-09-05T19:13:11.715Z,92.10
2018-09-05T19:15:17.291Z,92.50
2018-09-05T19:17:23.095Z,92.80
2018-09-05T19:19:28.666Z,93.10
2018-09-05T19:21:35.883Z,93.50
2018-09-05T19:23:43.298Z,93.60
2018-09-05T19:25:48.819Z,93.70
2018-09-05T19:27:54.836Z,94.00
2018-09-05T19:30:00.205Z,94.10
2018-09-05T19:32:05.978Z,94.50
2018-09-05T19:34:11.120Z,94.60
2018-09-05T19:36:17.150Z,95.10
2018-09-05T19:38:25.637Z,95.10
2018-09-05T19:40:33.075Z,95.20
2018-09-05T19:42:38.842Z,95.40
2018-09-05T19:44:44.949Z,95.40
2018-09-05T20:00:27.669Z,95.60
2018-09-05T20:02:33.359Z,96.00
2018-09-05T20:04:38.557Z,98.60
2018-09-05T20:06:44.342Z,98.60
2018-09-05T20:08:49.755Z,98.50
2018-09-05T20:10:56.784Z,98.90
2018-09-05T20:13:04.119Z,99.50
2018-09-05T20:15:11.252Z,99.90
2018-09-05T20:17:18.387Z,99.90
2018-09-05T20:19:24.069Z,99.90
2018-09-05T20:21:29.252Z,99.90
2018-09-05T20:23:36.363Z,99.90
2018-09-05T20:25:41.838Z,99.90
2018-09-05T20:27:49.976Z,99.90
2018-09-05T20:29:55.625Z,99.90
2018-09-05T20:32:01.038Z,99.90
2018-09-05T20:34:08.561Z,99.50
2018-09-05T20:36:15.931Z,99.40
2018-09-05T20:38:26.804Z,99.40
2018-09-05T20:40:33.058Z,99.40
2018-09-05T20:42:40.709Z,99.40
2018-09-05T20:44:45.861Z,99.20
2018-09-05T20:46:51.660Z,98.70
2018-09-05T20:48:56.936Z,98.80
2018-09-05T20:51:02.328Z,98.60
2018-09-05T20:53:08.064Z,98.70
2018-09-05T20:55:13.307Z,99.00
2018-09-05T20:57:18.308Z,98.90
2018-09-05T20:59:23.359Z,98.90
2018-09-05T21:01:28.367Z,99.00
2018-09-05T21:03:33.658Z,98.70
2018-09-05T21:05:41.779Z,98.50
2018-09-05T21:07:46.818Z,98.30
2018-09-05T21:09:51.765Z,98.30
2018-09-05T21:11:57.161Z,98.10
2018-09-05T21:14:02.412Z,98.40
2018-09-05T21:16:08.283Z,98.70
2018-09-05T21:18:13.638Z,99.30
2018-09-05T21:20:18.501Z,99.10
2018-09-05T21:22:23.811Z,98.40
2018-09-05T21:24:28.933Z,97.90
2018-09-05T21:26:34.195Z,97.40
2018-09-05T21:28:39.532Z,97.20
2018-09-05T21:30:45.316Z,97.10
2018-09-05T21:32:50.556Z,96.70
2018-09-05T21:34:55.541Z,96.40
2018-09-05T21:37:00.331Z,96.40
2018-09-05T21:39:07.009Z,96.30
2018-09-05T21:41:12.157Z,96.10
2018-09-05T21:43:17.230Z,96.10
2018-09-05T21:45:22.030Z,95.60
2018-09-05T21:47:27.233Z,95.40
2018-09-05T21:49:32.273Z,95.10
2018-09-05T21:51:37.200Z,94.80
2018-09-05T21:53:41.997Z,94.70
2018-09-05T21:55:47.012Z,94.80
2018-09-05T21:57:51.891Z,95.00
2018-09-05T21:59:56.631Z,95.20
2018-09-05T22:02:01.349Z,95.50
2018-09-05T22:04:06.226Z,95.60
2018-09-05T22:06:11.111Z,95.80
2018-09-05T22:08:15.903Z,95.90
2018-09-05T22:10:20.848Z,96.10
2018-09-05T22:12:25.627Z,96.10
2018-09-05T22:14:30.388Z,95.90
2018-09-05T22:16:35.165Z,96.20
2018-09-05T22:18:39.971Z,96.00
2018-09-05T22:20:44.721Z,96.00
2018-09-05T22:22:49.642Z,96.00
2018-09-05T22:24:54.864Z,96.20
2018-09-05T22:26:59.652Z,96.00
2018-09-05T22:29:04.540Z,95.80
2018-09-05T22:31:09.524Z,95.60
2018-09-05T22:33:14.366Z,95.40
2018-09-05T22:35:19.234Z,95.10
2018-09-05T22:37:24.665Z,95.10
2018-09-05T22:39:29.456Z,94.90
2018-09-05T22:41:34.209Z,95.20
2018-09-05T22:43:55.839Z,95.20
2018-09-05T22:46:17.228Z,95.50
2018-09-05T22:48:49.279Z,95.70
2018-09-05T22:51:15.826Z,96.00
2018-09-05T22:57:51.403Z,96.20
2018-09-05T23:04:16.576Z,96.10
2018-09-05T23:07:11.774Z,96.00
2018-09-05T23:11:28.073Z,95.80
2018-09-05T23:13:49.368Z,96.40
2018-09-05T23:16:10.688Z,96.90
2018-09-05T23:18:42.802Z,96.90
2018-09-05T23:21:26.512Z,97.20
2018-09-05T23:23:47.900Z,97.10
2018-09-05T23:25:52.765Z,98.00
2018-09-05T23:27:57.826Z,98.70
2018-09-05T23:30:02.755Z,99.90
2018-09-05T23:32:07.832Z,99.90
2018-09-05T23:34:12.810Z,99.90
2018-09-05T23:36:17.957Z,99.90
2018-09-05T23:38:22.996Z,99.90
2018-09-05T23:40:28.024Z,99.90
2018-09-05T23:42:33.379Z,99.90
2018-09-05T23:44:38.303Z,99.90
2018-09-05T23:46:43.788Z,99.90
2018-09-05T23:48:48.696Z,99.90
2018-09-05T23:50:54.097Z,99.90
2018-09-05T23:52:58.820Z,99.90
2018-09-05T23:55:03.680Z,99.90
2018-09-05T23:57:08.459Z,99.90
2018-09-05T23:59:13.153Z,99.90
